Time;durP1;ratioP1;P1;durP2;ratioP2;P2;SDS_P1;SDS_P2;PMS_P1;PMS_P2;Temp;Humidity;BMP_temperature;BMP_pressure;BME280_temperature;BME280_humidity;BME280_pressure;Samples;Min_cycle;Max_cycle;Signal;HPM_P1;HPM_P2
2023/04/28 00:00:47;;;;;;;7.90;7.30;;;;;;;;;;6125276;23;20505;-80
2023/04/28 00:03:13;;;;;;;8.95;8.05;;;;;;;;;;6124974;23;20037;-77
2023/04/28 00:05:38;;;;;;;9.30;7.05;;;;;;;;;;6124735;23;20018;-81
2023/04/28 00:08:05;;;;;;;10.25;7.72;;;;;;;;;;6125678;23;20013;-81
2023/04/28 00:10:31;;;;;;;9.82;7.90;;;;;;;;;;6100725;23;20452;-81
2023/04/28 00:12:57;;;;;;;10.88;7.93;;;;;;;;;;6127293;23;20017;-81
2023/04/28 00:15:23;;;;;;;10.70;8.23;;;;;;;;;;6100687;23;20036;-81
2023/04/28 00:17:49;;;;;;;8.77;7.97;;;;;;;;;;6126900;23;20014;-81
2023/04/28 00:20:15;;;;;;;9.40;8.60;;;;;;;;;;6100443;23;20193;-81
2023/04/28 00:22:41;;;;;;;8.95;8.25;;;;;;;;;;6075429;23;20026;-80
2023/04/28 00:25:07;;;;;;;8.73;7.75;;;;;;;;;;6075893;23;20010;-81
2023/04/28 00:27:33;;;;;;;8.85;8.00;;;;;;;;;;6099084;23;20189;-79
2023/04/28 00:29:59;;;;;;;9.05;8.20;;;;;;;;;;6124713;23;20028;-79
2023/04/28 00:32:25;;;;;;;10.00;7.60;;;;;;;;;;6125009;23;20013;-80
2023/04/28 00:34:52;;;;;;;9.15;8.27;;;;;;;;;;6099219;23;20018;-79
2023/04/28 00:37:18;;;;;;;9.48;8.65;;;;;;;;;;6099246;23;20009;-80
2023/04/28 00:39:47;;;;;;;8.18;7.47;;;;;;;;;;6125077;23;20057;-80
2023/04/28 00:42:14;;;;;;;12.90;8.32;;;;;;;;;;6126187;23;20040;-81
2023/04/28 00:44:40;;;;;;;8.52;7.60;;;;;;;;;;6075426;23;20009;-79
2023/04/28 00:47:09;;;;;;;9.30;8.50;;;;;;;;;;6099382;23;20014;-80
2023/04/28 00:49:35;;;;;;;11.40;7.38;;;;;;;;;;6124722;23;20036;-80
2023/04/28 00:52:03;;;;;;;8.38;6.47;;;;;;;;;;6075236;23;20006;-79
2023/04/28 00:54:29;;;;;;;9.43;7.47;;;;;;;;;;6124193;23;20016;-80
2023/04/28 00:56:55;;;;;;;7.45;6.95;;;;;;;;;;6099612;23;20018;-80
2023/04/28 00:59:21;;;;;;;8.35;6.57;;;;;;;;;;6099837;23;20014;-79
2023/04/28 01:01:48;;;;;;;7.80;7.10;;;;;;;;;;6098756;23;20017;-80
2023/04/28 01:04:16;;;;;;;9.02;8.23;;;;;;;;;;6098502;23;20009;-80
2023/04/28 01:06:42;;;;;;;8.75;7.95;;;;;;;;;;6102802;23;20101;-81
2023/04/28 01:09:08;;;;;;;10.75;6.63;;;;;;;;;;6132420;23;20052;-82
2023/04/28 01:11:35;;;;;;;8.40;7.05;;;;;;;;;;6105101;23;20336;-80
2023/04/28 01:14:17;;;;;;;7.85;7.15;;;;;;;;;;6124524;23;20037;-81
2023/04/28 01:16:43;;;;;;;7.80;7.18;;;;;;;;;;6098936;23;20049;-81
2023/04/28 01:19:17;;;;;;;6.22;5.32;;;;;;;;;;6099769;23;20467;-80
2023/04/28 01:21:43;;;;;;;7.53;6.82;;;;;;;;;;6100379;23;20037;-80
2023/04/28 01:24:20;;;;;;;6.13;5.68;;;;;;;;;;6133761;23;20014;-78
2023/04/28 01:26:46;;;;;;;7.95;7.15;;;;;;;;;;6126608;23;20014;-81
2023/04/28 01:29:12;;;;;;;7.55;6.45;;;;;;;;;;6099261;23;20036;-79
2023/04/28 01:31:39;;;;;;;8.35;7.72;;;;;;;;;;6125765;23;20010;-81
2023/04/28 01:34:06;;;;;;;9.45;8.60;;;;;;;;;;6126181;23;20017;-81
2023/04/28 01:36:32;;;;;;;8.93;7.72;;;;;;;;;;6099483;23;20355;-80
2023/04/28 01:38:58;;;;;;;10.05;7.95;;;;;;;;;;6128418;23;20037;-79
2023/04/28 01:41:24;;;;;;;8.32;7.63;;;;;;;;;;6133933;23;20078;-79
2023/04/28 01:43:51;;;;;;;9.68;8.77;;;;;;;;;;6110812;23;20022;-80
2023/04/28 01:46:17;;;;;;;9.10;8.00;;;;;;;;;;6133063;23;20046;-80
2023/04/28 01:48:43;;;;;;;10.00;9.05;;;;;;;;;;6149486;23;20049;-80
2023/04/28 01:51:09;;;;;;;13.82;7.30;;;;;;;;;;6126392;23;20038;-81
2023/04/28 01:53:37;;;;;;;9.82;8.65;;;;;;;;;;6101438;23;20002;-80
2023/04/28 01:56:04;;;;;;;8.48;7.72;;;;;;;;;;6150390;23;20018;-80
2023/04/28 01:58:29;;;;;;;8.90;8.20;;;;;;;;;;6151580;23;20002;-81
2023/04/28 02:00:56;;;;;;;9.27;8.38;;;;;;;;;;6107618;23;20477;-80
2023/04/28 02:03:22;;;;;;;8.30;7.60;;;;;;;;;;6105843;23;20013;-81
2023/04/28 02:05:49;;;;;;;8.50;7.78;;;;;;;;;;6134095;23;20502;-81
2023/04/28 02:08:15;;;;;;;8.73;8.02;;;;;;;;;;6117799;23;19998;-82
2023/04/28 02:10:41;;;;;;;8.85;7.88;;;;;;;;;;6094008;23;20026;-82
2023/04/28 02:13:07;;;;;;;11.80;9.48;;;;;;;;;;6116080;23;20210;-82
2023/04/28 02:15:34;;;;;;;8.88;7.97;;;;;;;;;;6114612;23;20030;-81
2023/04/28 02:18:00;;;;;;;9.27;8.13;;;;;;;;;;6109969;23;20061;-80
2023/04/28 02:20:26;;;;;;;10.13;8.93;;;;;;;;;;6109161;23;20037;-84
2023/04/28 02:22:53;;;;;;;8.82;8.10;;;;;;;;;;6086200;23;20029;-82
2023/04/28 02:25:19;;;;;;;8.05;7.38;;;;;;;;;;6133081;23;20018;-81
2023/04/28 02:27:46;;;;;;;9.02;8.10;;;;;;;;;;6129432;23;20530;-82
2023/04/28 02:30:12;;;;;;;9.35;8.43;;;;;;;;;;6124401;23;20050;-80
2023/04/28 02:32:38;;;;;;;10.00;8.60;;;;;;;;;;6098263;23;20510;-81
2023/04/28 02:35:05;;;;;;;8.13;6.50;;;;;;;;;;6124355;23;20057;-81
2023/04/28 02:37:31;;;;;;;9.20;8.30;;;;;;;;;;6098561;23;20145;-80
2023/04/28 02:39:57;;;;;;;8.68;8.07;;;;;;;;;;6074480;23;20032;-82
2023/04/28 02:42:23;;;;;;;13.82;8.63;;;;;;;;;;6125122;23;20025;-81
2023/04/28 02:44:49;;;;;;;9.95;7.72;;;;;;;;;;6125404;23;20048;-82
2023/04/28 02:47:15;;;;;;;8.93;8.13;;;;;;;;;;6100655;23;20013;-82
2023/04/28 02:49:41;;;;;;;8.80;8.10;;;;;;;;;;6124517;23;20127;-80
2023/04/28 02:52:08;;;;;;;8.98;8.15;;;;;;;;;;6099270;23;20013;-81
2023/04/28 02:54:36;;;;;;;10.50;8.63;;;;;;;;;;6074746;23;20028;-81
2023/04/28 02:57:05;;;;;;;9.43;8.55;;;;;;;;;;6073967;23;20022;-80
2023/04/28 02:59:31;;;;;;;10.10;9.05;;;;;;;;;;6097675;23;20014;-80
2023/04/28 03:01:57;;;;;;;11.60;7.93;;;;;;;;;;6125311;23;20462;-81
2023/04/28 03:04:23;;;;;;;11.57;7.68;;;;;;;;;;6108452;23;20017;-80
2023/04/28 03:06:50;;;;;;;11.57;8.18;;;;;;;;;;6125108;23;20001;-81
2023/04/28 03:09:16;;;;;;;9.30;7.75;;;;;;;;;;6101483;23;20022;-81
2023/04/28 03:11:42;;;;;;;9.10;8.18;;;;;;;;;;6125562;23;20042;-81
2023/04/28 03:14:08;;;;;;;14.75;8.00;;;;;;;;;;6126704;23;20018;-80
2023/04/28 03:16:34;;;;;;;7.28;6.70;;;;;;;;;;6126491;23;20046;-80
2023/04/28 03:19:00;;;;;;;6.35;5.65;;;;;;;;;;6147872;23;20018;-78
2023/04/28 03:21:27;;;;;;;7.97;7.13;;;;;;;;;;6122653;23;20044;-82
2023/04/28 03:23:54;;;;;;;12.63;8.00;;;;;;;;;;6123970;23;20024;-83
2023/04/28 03:26:21;;;;;;;9.27;7.95;;;;;;;;;;6081635;23;20014;-76
2023/04/28 03:28:48;;;;;;;7.93;7.22;;;;;;;;;;6100044;23;20618;-79
2023/04/28 03:31:14;;;;;;;9.00;7.68;;;;;;;;;;6099718;23;20102;-78
2023/04/28 03:33:41;;;;;;;8.98;7.28;;;;;;;;;;6077013;23;20120;-79
2023/04/28 03:36:08;;;;;;;8.60;7.80;;;;;;;;;;6100915;23;20017;-79
2023/04/28 03:38:34;;;;;;;6.78;6.22;;;;;;;;;;6076448;23;20115;-80
2023/04/28 03:41:00;;;;;;;6.25;5.68;;;;;;;;;;6128547;23;20016;-80
2023/04/28 03:43:52;;;;;;;7.22;6.63;;;;;;;;;;6127268;23;20014;-81
2023/04/28 03:46:27;;;;;;;9.73;7.45;;;;;;;;;;6101635;23;20038;-81
2023/04/28 03:48:53;;;;;;;7.55;6.85;;;;;;;;;;6102720;23;20419;-81
2023/04/28 03:51:20;;;;;;;11.07;6.35;;;;;;;;;;6126425;23;20121;-79
2023/04/28 03:53:46;;;;;;;11.45;7.10;;;;;;;;;;6125640;23;20014;-79
2023/04/28 03:56:12;;;;;;;8.25;6.32;;;;;;;;;;6076265;23;20021;-79
2023/04/28 03:58:39;;;;;;;7.45;6.70;;;;;;;;;;6076111;23;20025;-80
2023/04/28 04:01:05;;;;;;;7.07;6.50;;;;;;;;;;6103046;23;20038;-82
2023/04/28 04:03:31;;;;;;;8.82;6.60;;;;;;;;;;6100394;23;20022;-81
2023/04/28 04:05:57;;;;;;;9.60;6.78;;;;;;;;;;6099535;23;20391;-80
2023/04/28 04:08:23;;;;;;;7.88;7.07;;;;;;;;;;6125558;23;20053;-81
2023/04/28 04:10:51;;;;;;;7.53;5.55;;;;;;;;;;6126626;23;20366;-81
2023/04/28 04:13:20;;;;;;;7.82;7.05;;;;;;;;;;6126724;23;20178;-80
2023/04/28 04:15:46;;;;;;;11.55;6.78;;;;;;;;;;6101079;23;20018;-81
2023/04/28 04:18:13;;;;;;;7.63;6.93;;;;;;;;;;6100228;23;20090;-81
2023/04/28 04:21:00;;;;;;;7.22;6.05;;;;;;;;;;6105035;23;20356;-83
2023/04/28 04:23:26;;;;;;;9.18;7.38;;;;;;;;;;6103493;23;20443;-83
2023/04/28 04:25:52;;;;;;;11.52;6.53;;;;;;;;;;6099332;23;20018;-82
2023/04/28 04:28:18;;;;;;;8.23;5.82;;;;;;;;;;6080681;23;20014;-82
2023/04/28 04:30:44;;;;;;;7.85;6.32;;;;;;;;;;6105713;23;20056;-82
2023/04/28 04:33:11;;;;;;;6.60;6.10;;;;;;;;;;6077294;23;20064;-80
2023/04/28 04:35:37;;;;;;;8.45;7.63;;;;;;;;;;6099906;23;20471;-80
2023/04/28 04:38:03;;;;;;;8.05;5.63;;;;;;;;;;6126581;23;20021;-80
2023/04/28 04:40:31;;;;;;;6.82;6.15;;;;;;;;;;6101090;23;20014;-81
2023/04/28 04:42:57;;;;;;;6.68;6.07;;;;;;;;;;6101704;23;20033;-80
2023/04/28 04:45:26;;;;;;;8.20;5.88;;;;;;;;;;6099376;23;20010;-81
2023/04/28 04:47:53;;;;;;;9.60;7.03;;;;;;;;;;6074250;23;20379;-81
2023/04/28 04:50:19;;;;;;;7.28;6.45;;;;;;;;;;6099555;23;20028;-81
2023/04/28 04:52:45;;;;;;;9.27;6.82;;;;;;;;;;6099285;23;20470;-81
2023/04/28 04:55:11;;;;;;;7.05;6.38;;;;;;;;;;6075180;23;20022;-81
2023/04/28 04:57:39;;;;;;;7.20;6.60;;;;;;;;;;6099172;23;20092;-81
2023/04/28 05:00:14;;;;;;;14.07;6.90;;;;;;;;;;6097836;23;20041;-74
2023/04/28 05:02:41;;;;;;;10.77;8.00;;;;;;;;;;6097617;23;20018;-74
2023/04/28 05:05:08;;;;;;;8.70;7.00;;;;;;;;;;6098630;23;20014;-75
2023/04/28 05:07:34;;;;;;;7.45;6.85;;;;;;;;;;6098488;23;20371;-75
2023/04/28 05:10:00;;;;;;;8.35;7.55;;;;;;;;;;6098588;23;20096;-74
2023/04/28 05:12:27;;;;;;;10.40;8.02;;;;;;;;;;6099140;23;20014;-75
2023/04/28 05:14:53;;;;;;;7.93;7.00;;;;;;;;;;6076209;23;20029;-74
2023/04/28 05:17:20;;;;;;;8.32;7.72;;;;;;;;;;6085450;23;20073;-76
2023/04/28 05:19:46;;;;;;;7.88;7.18;;;;;;;;;;6096858;23;20069;-76
2023/04/28 05:22:13;;;;;;;8.02;7.25;;;;;;;;;;6085168;23;20074;-77
2023/04/28 05:24:39;;;;;;;9.93;7.25;;;;;;;;;;6073594;23;20494;-76
2023/04/28 05:27:05;;;;;;;7.85;7.15;;;;;;;;;;6123003;23;20602;-76
2023/04/28 05:29:33;;;;;;;7.50;6.90;;;;;;;;;;6097756;23;20021;-77
2023/04/28 05:31:59;;;;;;;13.23;6.70;;;;;;;;;;6095348;23;20014;-75
2023/04/28 05:34:25;;;;;;;9.68;6.72;;;;;;;;;;6097534;23;20455;-76
2023/04/28 05:36:51;;;;;;;7.55;6.85;;;;;;;;;;6074499;23;20020;-75
2023/04/28 05:39:20;;;;;;;7.18;6.13;;;;;;;;;;6095511;23;20014;-74
2023/04/28 05:41:46;;;;;;;10.20;6.82;;;;;;;;;;6096913;23;20013;-74
2023/04/28 05:44:11;;;;;;;7.20;6.50;;;;;;;;;;6122935;23;20020;-76
2023/04/28 05:46:41;;;;;;;10.63;6.78;;;;;;;;;;6097196;23;20463;-76
2023/04/28 05:49:13;;;;;;;7.45;6.82;;;;;;;;;;6073048;23;20036;-76
2023/04/28 05:51:39;;;;;;;9.32;6.45;;;;;;;;;;6097357;23;20014;-77
2023/04/28 05:54:05;;;;;;;7.90;7.18;;;;;;;;;;6098053;23;20045;-75
2023/04/28 05:56:37;;;;;;;8.85;6.88;;;;;;;;;;6096870;23;20450;-75
2023/04/28 05:59:03;;;;;;;7.60;6.90;;;;;;;;;;6072695;23;20026;-75
2023/04/28 06:01:30;;;;;;;7.38;6.60;;;;;;;;;;6096911;23;20532;-75
2023/04/28 06:03:57;;;;;;;8.63;6.72;;;;;;;;;;6096584;23;20536;-77
2023/04/28 06:06:24;;;;;;;13.48;8.57;;;;;;;;;;6049310;23;20500;-76
2023/04/28 06:08:51;;;;;;;9.55;6.78;;;;;;;;;;6097175;23;20030;-77
2023/04/28 06:11:20;;;;;;;7.68;6.30;;;;;;;;;;6099806;23;20014;-76
2023/04/28 06:13:49;;;;;;;7.47;6.35;;;;;;;;;;6074771;23;20041;-77
2023/04/28 06:16:17;;;;;;;9.18;7.00;;;;;;;;;;6076489;23;20010;-76
2023/04/28 06:18:43;;;;;;;6.63;6.00;;;;;;;;;;6072507;23;20035;-77
2023/04/28 06:21:10;;;;;;;6.32;5.85;;;;;;;;;;6098238;23;20014;-77
2023/04/28 06:23:37;;;;;;;12.73;6.82;;;;;;;;;;6073160;23;20021;-78
2023/04/28 06:26:03;;;;;;;7.30;6.70;;;;;;;;;;6073135;23;20057;-76
2023/04/28 06:28:29;;;;;;;7.07;6.57;;;;;;;;;;6096530;23;20073;-76
2023/04/28 06:30:55;;;;;;;8.05;7.30;;;;;;;;;;6122369;23;20017;-75
2023/04/28 06:33:21;;;;;;;8.18;6.15;;;;;;;;;;6096909;23;20372;-76
2023/04/28 06:35:47;;;;;;;7.95;7.15;;;;;;;;;;6121825;23;20061;-75
2023/04/28 06:38:14;;;;;;;7.10;5.95;;;;;;;;;;6095425;23;20009;-78
2023/04/28 06:40:40;;;;;;;7.35;6.70;;;;;;;;;;6094093;23;20025;-76
2023/04/28 06:43:07;;;;;;;7.63;6.93;;;;;;;;;;6096012;23;20041;-75
2023/04/28 06:45:54;;;;;;;6.97;6.38;;;;;;;;;;6085324;23;20370;-76
2023/04/28 06:48:24;;;;;;;8.45;6.60;;;;;;;;;;6122078;23;20021;-75
2023/04/28 06:50:50;;;;;;;7.20;6.60;;;;;;;;;;6095666;23;20646;-74
2023/04/28 06:53:16;;;;;;;12.15;6.45;;;;;;;;;;6122935;23;20025;-77
2023/04/28 06:55:43;;;;;;;7.40;6.80;;;;;;;;;;6072913;23;20391;-75
2023/04/28 06:58:09;;;;;;;5.93;5.53;;;;;;;;;;6122474;23;20016;-76
2023/04/28 07:00:35;;;;;;;6.00;5.57;;;;;;;;;;6096328;23;20013;-78
2023/04/28 07:03:01;;;;;;;6.95;6.25;;;;;;;;;;6122196;23;20018;-75
2023/04/28 07:05:27;;;;;;;7.70;6.30;;;;;;;;;;6119964;23;20522;-75
2023/04/28 07:07:53;;;;;;;6.82;6.22;;;;;;;;;;6071648;23;20024;-76
2023/04/28 07:10:19;;;;;;;6.50;6.00;;;;;;;;;;6072076;23;20183;-77
2023/04/28 07:12:46;;;;;;;6.10;5.70;;;;;;;;;;6122046;23;20010;-76
2023/04/28 07:15:12;;;;;;;6.10;5.57;;;;;;;;;;6072504;23;20072;-76
2023/04/28 07:17:38;;;;;;;6.43;5.35;;;;;;;;;;6096252;23;20336;-73
2023/04/28 07:20:04;;;;;;;6.05;4.03;;;;;;;;;;6096838;23;20104;-75
2023/04/28 07:22:30;;;;;;;4.40;4.10;;;;;;;;;;6074651;23;20355;-75
2023/04/28 07:24:56;;;;;;;6.15;4.72;;;;;;;;;;6125593;23;20024;-75
2023/04/28 07:27:22;;;;;;;4.80;4.25;;;;;;;;;;6122457;23;20020;-74
2023/04/28 07:29:48;;;;;;;4.93;4.53;;;;;;;;;;6121738;23;20132;-74
2023/04/28 07:32:14;;;;;;;5.03;4.57;;;;;;;;;;6096354;23;20010;-76
2023/04/28 07:34:40;;;;;;;4.10;3.80;;;;;;;;;;6120989;23;20418;-73
2023/04/28 07:37:10;;;;;;;4.90;4.45;;;;;;;;;;6091079;23;20010;-76
2023/04/28 07:39:38;;;;;;;5.78;4.28;;;;;;;;;;6120049;23;20013;-77
2023/04/28 07:42:04;;;;;;;5.35;4.85;;;;;;;;;;6094540;23;20034;-76
2023/04/28 07:44:30;;;;;;;5.10;4.70;;;;;;;;;;6120790;23;20041;-78
2023/04/28 07:46:56;;;;;;;4.78;4.47;;;;;;;;;;6046622;23;20021;-77
2023/04/28 07:49:23;;;;;;;5.15;4.60;;;;;;;;;;6093245;23;20474;-77
2023/04/28 07:51:52;;;;;;;4.82;4.50;;;;;;;;;;6119286;23;20085;-77
2023/04/28 07:54:18;;;;;;;4.90;4.47;;;;;;;;;;6120006;23;20034;-76
2023/04/28 07:56:44;;;;;;;4.13;3.83;;;;;;;;;;6074038;23;20010;-77
2023/04/28 07:59:10;;;;;;;4.15;3.95;;;;;;;;;;6071933;23;20018;-76
2023/04/28 08:01:36;;;;;;;5.40;4.35;;;;;;;;;;6122084;23;20020;-76
2023/04/28 08:04:02;;;;;;;6.63;4.90;;;;;;;;;;6122232;23;20014;-76
2023/04/28 08:06:28;;;;;;;5.13;4.82;;;;;;;;;;6121678;23;20018;-78
2023/04/28 08:08:54;;;;;;;10.38;4.65;;;;;;;;;;6121383;23;20367;-77
2023/04/28 08:11:21;;;;;;;4.55;4.15;;;;;;;;;;6094081;23;20126;-77
2023/04/28 08:13:47;;;;;;;4.75;4.45;;;;;;;;;;6121712;23;20029;-76
2023/04/28 08:16:14;;;;;;;6.32;5.38;;;;;;;;;;6096642;23;20017;-76
2023/04/28 08:18:41;;;;;;;5.45;5.05;;;;;;;;;;6072946;23;20014;-77
2023/04/28 08:21:07;;;;;;;4.75;4.35;;;;;;;;;;6097649;23;20018;-76
2023/04/28 08:23:34;;;;;;;5.07;4.70;;;;;;;;;;6074549;23;20010;-76
2023/04/28 08:26:00;;;;;;;5.65;3.83;;;;;;;;;;6097391;23;20093;-76
2023/04/28 08:28:27;;;;;;;5.03;4.72;;;;;;;;;;6123659;23;20064;-77
2023/04/28 08:30:54;;;;;;;4.85;4.53;;;;;;;;;;6073597;23;20593;-76
2023/04/28 08:33:20;;;;;;;5.45;5.05;;;;;;;;;;6097913;23;20025;-77
2023/04/28 08:35:46;;;;;;;5.38;4.93;;;;;;;;;;6073371;23;20014;-77
2023/04/28 08:38:14;;;;;;;8.80;5.47;;;;;;;;;;6097397;23;20096;-75
2023/04/28 08:40:41;;;;;;;5.93;5.43;;;;;;;;;;6123507;23;20025;-77
2023/04/28 08:43:09;;;;;;;6.00;5.20;;;;;;;;;;6124812;23;20074;-77
2023/04/28 08:45:39;;;;;;;5.50;5.00;;;;;;;;;;6130965;23;20077;-76
2023/04/28 08:48:05;;;;;;;5.78;4.88;;;;;;;;;;6112665;23;20073;-76
2023/04/28 08:50:31;;;;;;;6.63;6.13;;;;;;;;;;6132432;23;20521;-78
2023/04/28 08:52:57;;;;;;;5.90;5.50;;;;;;;;;;6123004;23;20017;-79
2023/04/28 08:55:23;;;;;;;8.07;5.47;;;;;;;;;;6098644;23;20018;-77
2023/04/28 08:57:50;;;;;;;6.00;5.35;;;;;;;;;;6098278;23;20013;-78
2023/04/28 09:00:16;;;;;;;5.50;5.10;;;;;;;;;;6124213;23;20013;-78
2023/04/28 09:02:43;;;;;;;5.90;5.40;;;;;;;;;;6123670;23;20017;-83
2023/04/28 09:05:10;;;;;;;6.72;6.13;;;;;;;;;;6097749;23;20022;-78
2023/04/28 09:07:35;;;;;;;6.50;6.10;;;;;;;;;;6123185;23;20352;-79
2023/04/28 09:10:21;;;;;;;6.00;5.65;;;;;;;;;;6073281;23;20551;-77
2023/04/28 09:12:48;;;;;;;6.65;6.22;;;;;;;;;;6049617;23;20021;-78
2023/04/28 09:15:30;;;;;;;7.65;6.05;;;;;;;;;;6123348;23;20514;-79
2023/04/28 09:17:57;;;;;;;6.60;6.10;;;;;;;;;;6097625;23;20368;-78
2023/04/28 09:20:23;;;;;;;7.63;7.05;;;;;;;;;;6123208;23;20013;-77
2023/04/28 09:22:49;;;;;;;6.90;6.50;;;;;;;;;;6123323;23;20024;-78
2023/04/28 09:25:16;;;;;;;7.18;6.57;;;;;;;;;;6097416;23;20014;-80
2023/04/28 09:27:41;;;;;;;7.60;7.00;;;;;;;;;;6122804;23;20022;-78
2023/04/28 09:30:08;;;;;;;7.45;6.85;;;;;;;;;;6122285;23;20021;-77
2023/04/28 09:32:36;;;;;;;10.63;7.90;;;;;;;;;;6097080;23;20441;-78
2023/04/28 09:35:03;;;;;;;7.32;6.72;;;;;;;;;;6097256;23;20010;-77
2023/04/28 09:37:30;;;;;;;21.88;18.48;;;;;;;;;;6096842;23;20101;-77
2023/04/28 09:39:58;;;;;;;12.80;11.68;;;;;;;;;;6095037;23;20025;-80
2023/04/28 09:42:34;;;;;;;9.32;7.60;;;;;;;;;;6123621;23;20038;-78
2023/04/28 09:45:01;;;;;;;7.38;6.85;;;;;;;;;;6097383;23;20338;-79
2023/04/28 09:47:34;;;;;;;8.40;7.38;;;;;;;;;;6075841;23;20419;-78
2023/04/28 09:50:01;;;;;;;8.05;7.45;;;;;;;;;;6120756;23;20097;-79
2023/04/28 09:52:29;;;;;;;9.05;7.68;;;;;;;;;;6100395;23;20097;-78
2023/04/28 09:54:55;;;;;;;8.05;7.20;;;;;;;;;;6096412;23;20348;-78
2023/04/28 09:57:22;;;;;;;7.97;7.28;;;;;;;;;;6122685;23;20021;-78
2023/04/28 09:59:48;;;;;;;8.10;7.40;;;;;;;;;;6122021;23;20014;-74
2023/04/28 10:02:14;;;;;;;7.70;6.90;;;;;;;;;;6129641;23;20016;-76
2023/04/28 10:04:44;;;;;;;7.55;7.03;;;;;;;;;;6144139;23;20014;-77
2023/04/28 10:07:16;;;;;;;7.38;6.93;;;;;;;;;;6144301;23;20021;-80
2023/04/28 10:09:51;;;;;;;7.70;6.95;;;;;;;;;;6142682;23;20056;-78
2023/04/28 10:12:17;;;;;;;7.78;7.18;;;;;;;;;;6119996;23;20142;-77
2023/04/28 10:14:43;;;;;;;8.13;7.43;;;;;;;;;;6126862;23;20403;-74
2023/04/28 10:17:10;;;;;;;7.95;7.35;;;;;;;;;;6122789;23;20048;-74
2023/04/28 10:19:36;;;;;;;8.77;8.07;;;;;;;;;;6121901;23;20024;-74
2023/04/28 10:22:21;;;;;;;7.97;7.28;;;;;;;;;;6122619;23;20403;-73
2023/04/28 10:24:50;;;;;;;8.13;7.35;;;;;;;;;;6122706;23;20049;-75
2023/04/28 10:27:16;;;;;;;6.97;6.47;;;;;;;;;;6123930;23;20093;-74
2023/04/28 10:29:42;;;;;;;7.20;6.50;;;;;;;;;;6122969;23;20028;-73
2023/04/28 10:32:15;;;;;;;7.18;6.57;;;;;;;;;;6095997;23;20006;-73
2023/04/28 10:34:41;;;;;;;8.13;6.75;;;;;;;;;;6121623;23;20018;-73
2023/04/28 10:37:07;;;;;;;7.82;7.20;;;;;;;;;;6122396;23;20068;-73
2023/04/28 10:39:34;;;;;;;6.80;6.30;;;;;;;;;;6122969;23;20077;-73
2023/04/28 10:42:00;;;;;;;6.60;6.20;;;;;;;;;;6095433;23;20041;-73
2023/04/28 10:44:29;;;;;;;6.05;5.75;;;;;;;;;;6096599;23;20358;-73
2023/04/28 10:47:00;;;;;;;6.88;6.20;;;;;;;;;;6096297;23;20010;-74
2023/04/28 10:49:45;;;;;;;6.15;5.75;;;;;;;;;;6122157;23;20045;-75
2023/04/28 10:52:30;;;;;;;6.28;5.72;;;;;;;;;;6122457;23;20026;-75
2023/04/28 10:55:22;;;;;;;6.75;6.20;;;;;;;;;;6122302;23;20101;-74
2023/04/28 10:58:05;;;;;;;7.32;6.60;;;;;;;;;;6041796;23;20027;-76
2023/04/28 11:00:31;;;;;;;7.18;6.50;;;;;;;;;;6096976;23;20022;-75
2023/04/28 11:02:57;;;;;;;7.07;6.47;;;;;;;;;;6096650;23;20128;-75
2023/04/28 11:05:26;;;;;;;8.25;6.95;;;;;;;;;;6122291;23;20036;-74
2023/04/28 11:08:12;;;;;;;7.03;6.35;;;;;;;;;;6122247;23;20010;-74
2023/04/28 11:10:56;;;;;;;6.30;5.90;;;;;;;;;;6121738;23;20025;-74
2023/04/28 11:13:32;;;;;;;6.72;6.32;;;;;;;;;;6096335;23;20100;-73
2023/04/28 11:16:02;;;;;;;7.25;6.78;;;;;;;;;;6122003;23;20013;-73
2023/04/28 11:18:28;;;;;;;7.22;6.47;;;;;;;;;;6122264;23;20018;-73
2023/04/28 11:20:55;;;;;;;8.07;7.13;;;;;;;;;;6125703;23;20333;-73
2023/04/28 11:23:21;;;;;;;8.48;7.85;;;;;;;;;;6080948;23;20041;-74
2023/04/28 11:25:54;;;;;;;9.15;8.30;;;;;;;;;;6131729;23;20014;-75
2023/04/28 11:28:20;;;;;;;10.27;9.25;;;;;;;;;;6110383;23;20018;-74
2023/04/28 11:30:46;;;;;;;9.27;8.65;;;;;;;;;;6133742;23;20026;-74
2023/04/28 11:33:12;;;;;;;11.45;10.55;;;;;;;;;;6132182;23;20017;-74
2023/04/28 11:35:41;;;;;;;10.18;9.40;;;;;;;;;;6126450;23;20018;-74
2023/04/28 11:38:07;;;;;;;11.15;10.15;;;;;;;;;;6122238;23;20018;-73
2023/04/28 11:40:33;;;;;;;11.20;10.30;;;;;;;;;;6122185;23;20037;-73
2023/04/28 11:43:00;;;;;;;10.88;9.40;;;;;;;;;;6096506;23;20018;-73
2023/04/28 11:45:26;;;;;;;9.55;8.38;;;;;;;;;;6122436;23;20021;-73
2023/04/28 11:47:52;;;;;;;9.75;8.98;;;;;;;;;;6120192;23;20024;-73
2023/04/28 11:50:34;;;;;;;9.10;8.40;;;;;;;;;;6121912;23;20104;-73
2023/04/28 11:53:00;;;;;;;10.90;10.10;;;;;;;;;;6096555;23;20018;-73
2023/04/28 11:55:27;;;;;;;11.45;10.30;;;;;;;;;;6097932;23;20092;-73
2023/04/28 11:58:12;;;;;;;10.70;9.90;;;;;;;;;;6097842;23;20044;-72
2023/04/28 12:00:38;;;;;;;10.68;9.88;;;;;;;;;;6125266;23;20088;-73
2023/04/28 12:03:07;;;;;;;10.30;9.50;;;;;;;;;;6124946;23;20481;-72
2023/04/28 12:05:34;;;;;;;9.85;9.10;;;;;;;;;;6124415;23;20056;-72
2023/04/28 12:08:00;;;;;;;10.25;9.52;;;;;;;;;;6098061;23;20037;-73
2023/04/28 12:10:26;;;;;;;9.27;8.57;;;;;;;;;;6097858;23;20101;-73
2023/04/28 12:12:52;;;;;;;10.35;9.45;;;;;;;;;;6123759;23;20014;-73
2023/04/28 12:15:19;;;;;;;11.20;10.40;;;;;;;;;;6105634;23;20018;-74
2023/04/28 12:17:45;;;;;;;8.98;8.32;;;;;;;;;;6106220;23;20024;-73
2023/04/28 12:20:11;;;;;;;10.73;9.90;;;;;;;;;;6126723;23;20014;-75
2023/04/28 12:22:45;;;;;;;10.43;9.57;;;;;;;;;;6124944;23;20009;-76
2023/04/28 12:25:12;;;;;;;10.95;10.05;;;;;;;;;;6124715;23;20085;-74
2023/04/28 12:27:39;;;;;;;11.48;10.68;;;;;;;;;;6124080;23;20375;-75
2023/04/28 12:30:20;;;;;;;11.50;10.60;;;;;;;;;;6124584;23;20066;-73
2023/04/28 12:32:47;;;;;;;11.40;10.60;;;;;;;;;;6072237;23;20478;-74
2023/04/28 12:35:13;;;;;;;10.52;9.70;;;;;;;;;;6122380;23;20042;-74
2023/04/28 12:37:40;;;;;;;9.48;8.63;;;;;;;;;;6123497;23;20088;-75
2023/04/28 12:40:06;;;;;;;8.95;7.97;;;;;;;;;;6096667;23;20336;-74
2023/04/28 12:42:32;;;;;;;10.13;7.78;;;;;;;;;;6123712;23;20088;-75
2023/04/28 12:44:58;;;;;;;8.23;7.03;;;;;;;;;;6123119;23;20013;-74
2023/04/28 12:47:24;;;;;;;8.52;7.82;;;;;;;;;;6123516;23;20068;-74
2023/04/28 12:49:52;;;;;;;9.15;8.25;;;;;;;;;;6123025;23;20030;-75
2023/04/28 12:52:18;;;;;;;9.10;8.40;;;;;;;;;;6098261;23;20009;-76
2023/04/28 12:54:46;;;;;;;9.60;8.82;;;;;;;;;;6123972;23;20018;-75
2023/04/28 12:57:12;;;;;;;11.93;9.05;;;;;;;;;;6097944;23;20017;-75
2023/04/28 12:59:38;;;;;;;9.32;8.63;;;;;;;;;;6124568;23;20014;-77
2023/04/28 13:02:05;;;;;;;14.35;8.60;;;;;;;;;;6130476;23;20016;-82
2023/04/28 13:04:31;;;;;;;8.65;7.95;;;;;;;;;;6102544;23;20482;-81
2023/04/28 13:06:57;;;;;;;9.23;8.52;;;;;;;;;;6124695;23;20010;-79
2023/04/28 13:09:23;;;;;;;9.57;8.77;;;;;;;;;;6096169;23;20352;-78
2023/04/28 13:11:52;;;;;;;10.10;9.30;;;;;;;;;;6097722;23;20014;-79
2023/04/28 13:14:20;;;;;;;;;;;;;;;;;;6097560;23;20029;-78
2023/04/28 13:16:46;;;;;;;9.98;9.07;;;;;;;;;;6123272;23;19908;-80
2023/04/28 13:19:13;;;;;;;9.75;8.95;;;;;;;;;;6123664;23;20022;-80
2023/04/28 13:21:40;;;;;;;10.80;9.77;;;;;;;;;;6098121;23;20040;-83
2023/04/28 13:24:07;;;;;;;10.77;10.07;;;;;;;;;;6100015;23;20485;-84
2023/04/28 13:26:33;;;;;;;11.88;10.77;;;;;;;;;;6126574;23;20277;-80
2023/04/28 13:29:00;;;;;;;13.63;11.77;;;;;;;;;;6123500;23;20535;-81
2023/04/28 13:31:26;;;;;;;12.88;11.57;;;;;;;;;;6097996;23;20025;-80
2023/04/28 13:33:52;;;;;;;14.82;13.45;;;;;;;;;;6119749;23;20406;-77
2023/04/28 13:36:17;;;;;;;12.93;11.68;;;;;;;;;;6123014;23;20218;-78
2023/04/28 13:38:47;;;;;;;14.95;13.65;;;;;;;;;;6123144;23;20510;-75
2023/04/28 13:41:16;;;;;;;13.55;12.25;;;;;;;;;;6123235;23;20399;-75
2023/04/28 13:43:42;;;;;;;9.13;8.43;;;;;;;;;;6122794;23;20025;-75
2023/04/28 13:46:08;;;;;;;12.82;11.75;;;;;;;;;;6097195;23;20010;-75
2023/04/28 13:48:35;;;;;;;13.80;12.35;;;;;;;;;;6096488;23;20026;-74
2023/04/28 13:51:01;;;;;;;12.82;11.68;;;;;;;;;;6122299;23;20383;-75
2023/04/28 13:53:27;;;;;;;12.82;11.73;;;;;;;;;;6123085;23;20506;-73
2023/04/28 13:55:56;;;;;;;15.18;13.68;;;;;;;;;;6122386;23;20018;-74
2023/04/28 13:58:25;;;;;;;18.88;13.52;;;;;;;;;;6097016;23;20069;-73
2023/04/28 14:00:51;;;;;;;13.98;12.52;;;;;;;;;;6096807;23;20542;-74
2023/04/28 14:03:20;;;;;;;13.20;12.00;;;;;;;;;;6122754;23;20021;-72
2023/04/28 14:05:55;;;;;;;13.98;9.95;;;;;;;;;;6096890;23;20021;-73
2023/04/28 14:08:22;;;;;;;14.15;10.73;;;;;;;;;;6125260;23;20021;-74
2023/04/28 14:10:48;;;;;;;12.40;11.40;;;;;;;;;;6074203;23;20052;-74
2023/04/28 14:13:14;;;;;;;11.25;10.02;;;;;;;;;;6097041;23;20355;-74
2023/04/28 14:15:40;;;;;;;13.30;12.23;;;;;;;;;;6122436;23;20013;-72
2023/04/28 14:18:07;;;;;;;12.80;11.63;;;;;;;;;;6121460;23;20021;-73
2023/04/28 14:20:33;;;;;;;12.82;11.82;;;;;;;;;;6117541;23;20014;-74
2023/04/28 14:22:59;;;;;;;14.95;13.43;;;;;;;;;;6120844;23;20017;-72
2023/04/28 14:25:26;;;;;;;14.07;12.73;;;;;;;;;;6122217;23;20021;-72
2023/04/28 14:27:51;;;;;;;13.20;11.85;;;;;;;;;;6120854;23;20018;-73
2023/04/28 14:30:18;;;;;;;12.57;11.27;;;;;;;;;;6122123;23;20033;-72
2023/04/28 14:32:44;;;;;;;13.02;11.95;;;;;;;;;;6119333;23;20013;-72
2023/04/28 14:35:10;;;;;;;11.40;10.40;;;;;;;;;;6094111;23;20017;-72
2023/04/28 14:37:36;;;;;;;7.38;5.63;;;;;;;;;;6122220;23;20044;-72
2023/04/28 14:40:04;;;;;;;6.40;5.72;;;;;;;;;;6120592;23;20071;-72